Time;durP1;ratioP1;P1;durP2;ratioP2;P2;SDS_P1;SDS_P2;PMS_P1;PMS_P2;Temp;Humidity;BMP_temperature;BMP_pressure;BME280_temperature;BME280_humidity;BME280_pressure;Samples;Min_cycle;Max_cycle;Signal;HPM_P1;HPM_P2
2024/03/09 00:01:14;;;;;;;58.05;22.23;;;5.40;99.90;;;;;;6299660;28;20043;-82
2024/03/09 00:04:16;;;;;;;54.75;21.92;;;5.40;99.90;;;;;;6270840;28;20045;-82
2024/03/09 00:07:18;;;;;;;61.65;22.42;;;5.40;99.90;;;;;;6294652;28;20059;-82
2024/03/09 00:10:19;;;;;;;49.33;20.27;;;5.40;99.90;;;;;;6293454;28;20526;-82
2024/03/09 00:13:21;;;;;;;46.95;21.08;;;5.40;99.90;;;;;;6290821;28;20404;-78
2024/03/09 00:16:24;;;;;;;48.45;20.85;;;5.40;99.90;;;;;;6277212;28;20053;-81
2024/03/09 00:19:26;;;;;;;60.33;21.10;;;5.40;99.90;;;;;;6294840;28;20504;-82
2024/03/09 00:22:27;;;;;;;60.15;22.05;;;5.40;99.90;;;;;;6294891;28;20062;-82
2024/03/09 00:25:29;;;;;;;50.90;21.52;;;5.50;99.90;;;;;;6294282;28;20056;-82
2024/03/09 00:28:32;;;;;;;51.13;19.98;;;5.50;99.90;;;;;;6289122;28;20048;-82
2024/03/09 00:31:34;;;;;;;50.05;19.88;;;5.60;99.90;;;;;;6309080;28;20106;-82
2024/03/09 00:34:37;;;;;;;47.75;19.88;;;5.60;99.90;;;;;;6276590;28;20048;-82
2024/03/09 00:37:39;;;;;;;52.40;20.40;;;5.70;99.90;;;;;;6294604;28;20063;-83
2024/03/09 00:40:40;;;;;;;49.22;20.00;;;5.80;99.90;;;;;;6276174;28;20044;-82
2024/03/09 00:43:43;;;;;;;42.25;19.98;;;5.80;99.90;;;;;;6265883;28;20801;-83
2024/03/09 00:46:45;;;;;;;52.67;20.08;;;5.80;99.90;;;;;;6294189;28;20412;-83
2024/03/09 00:49:47;;;;;;;48.33;20.95;;;5.80;99.90;;;;;;6294330;28;20048;-82
2024/03/09 00:52:50;;;;;;;43.50;18.85;;;6.00;99.90;;;;;;6294247;28;20500;-83
2024/03/09 00:55:52;;;;;;;48.72;21.25;;;6.00;99.90;;;;;;6293982;28;20060;-83
2024/03/09 00:58:56;;;;;;;40.97;19.00;;;6.00;99.90;;;;;;6288894;28;20048;-83
2024/03/09 01:02:01;;;;;;;47.95;19.85;;;6.10;99.90;;;;;;6269040;28;20053;-83
2024/03/09 01:05:04;;;;;;;44.28;19.90;;;6.10;99.90;;;;;;6297012;28;20048;-83
2024/03/09 01:08:05;;;;;;;44.75;19.02;;;6.20;99.90;;;;;;6291347;28;20044;-83
2024/03/09 01:11:07;;;;;;;48.33;19.20;;;6.20;99.90;;;;;;6293705;28;20059;-83
2024/03/09 01:14:09;;;;;;;40.25;18.23;;;6.20;99.90;;;;;;6292898;28;20055;-83
2024/03/09 01:17:11;;;;;;;47.45;18.20;;;6.30;99.90;;;;;;6294953;28;20117;-83
2024/03/09 01:20:13;;;;;;;44.17;18.27;;;6.20;99.90;;;;;;6276036;28;20052;-84
2024/03/09 01:23:15;;;;;;;45.67;19.42;;;6.30;99.90;;;;;;6292923;28;20500;-83
2024/03/09 01:26:17;;;;;;;46.97;18.67;;;6.20;99.90;;;;;;6293801;28;20056;-83
2024/03/09 01:29:20;;;;;;;43.03;19.55;;;6.20;99.90;;;;;;6288240;28;20052;-83
2024/03/09 01:32:22;;;;;;;41.22;18.33;;;6.30;99.90;;;;;;6293214;28;20053;-83
2024/03/09 01:35:24;;;;;;;43.22;18.20;;;6.30;99.90;;;;;;6293539;28;20040;-83
2024/03/09 01:38:26;;;;;;;40.15;18.13;;;6.30;99.90;;;;;;6273373;28;20434;-82
2024/03/09 01:41:28;;;;;;;40.40;18.83;;;6.40;99.90;;;;;;6293291;28;20052;-83
2024/03/09 01:44:31;;;;;;;39.67;17.33;;;6.50;99.90;;;;;;6282873;28;20139;-82
2024/03/09 01:47:33;;;;;;;42.15;17.67;;;6.40;99.90;;;;;;6293952;28;20419;-83
2024/03/09 01:50:37;;;;;;;37.28;17.05;;;6.50;99.90;;;;;;6274835;28;20062;-83
2024/03/09 01:53:42;;;;;;;42.95;19.05;;;6.50;99.90;;;;;;6293648;28;20052;-82
2024/03/09 01:56:44;;;;;;;42.88;18.10;;;6.50;99.90;;;;;;6307783;28;20060;-82
2024/03/09 01:59:46;;;;;;;37.00;17.65;;;6.50;99.90;;;;;;6298771;28;20044;-82
2024/03/09 02:02:48;;;;;;;46.40;19.25;;;6.50;99.90;;;;;;6298028;28;20063;-82
2024/03/09 02:05:50;;;;;;;41.53;18.90;;;6.60;99.90;;;;;;6297825;28;20048;-82
2024/03/09 02:08:52;;;;;;;39.63;17.77;;;6.60;99.90;;;;;;6297676;28;20044;-82
2024/03/09 02:11:54;;;;;;;43.08;19.05;;;6.60;99.90;;;;;;6298046;28;20048;-82
2024/03/09 02:14:55;;;;;;;39.08;17.92;;;6.50;99.90;;;;;;6292202;28;20052;-82
2024/03/09 02:17:57;;;;;;;41.75;19.45;;;6.50;99.90;;;;;;6321540;28;20415;-82
2024/03/09 02:21:00;;;;;;;39.50;18.17;;;6.50;99.90;;;;;;6280019;28;20487;-82
2024/03/09 02:24:02;;;;;;;41.92;19.02;;;6.50;99.90;;;;;;6295905;28;20060;-82
2024/03/09 02:27:06;;;;;;;41.47;18.02;;;6.50;99.90;;;;;;6314128;28;20048;-81
2024/03/09 02:30:08;;;;;;;43.78;17.90;;;6.50;99.90;;;;;;6297270;28;20044;-82
2024/03/09 02:33:10;;;;;;;41.38;18.00;;;6.60;99.90;;;;;;6297160;28;20566;-82
2024/03/09 02:36:12;;;;;;;42.67;18.15;;;6.60;99.90;;;;;;6301594;28;20058;-83
2024/03/09 02:39:15;;;;;;;34.22;18.20;;;6.50;99.90;;;;;;6297405;28;20052;-81
2024/03/09 02:42:17;;;;;;;40.03;18.92;;;6.60;99.90;;;;;;6296883;28;20530;-83
2024/03/09 02:45:18;;;;;;;41.85;18.70;;;6.70;99.90;;;;;;6291198;28;20142;-82
2024/03/09 02:48:20;;;;;;;36.67;16.75;;;6.70;99.90;;;;;;6303632;28;20048;-83
2024/03/09 02:51:22;;;;;;;42.45;18.02;;;6.80;99.90;;;;;;6316710;28;20052;-83
2024/03/09 02:54:23;;;;;;;39.08;17.80;;;6.80;99.90;;;;;;6297101;28;20052;-83
2024/03/09 02:57:26;;;;;;;39.08;18.13;;;6.80;99.90;;;;;;6297414;28;20053;-83
2024/03/09 03:00:28;;;;;;;36.42;16.95;;;6.80;99.90;;;;;;6298447;28;20051;-83
2024/03/09 03:06:50;;;;;;;38.38;16.75;;;6.90;99.90;;;;;;6271643;28;20063;-83
2024/03/09 03:09:57;;;;;;;34.92;17.25;;;6.80;99.90;;;;;;6294680;28;20507;-83
2024/03/09 03:12:58;;;;;;;37.47;17.25;;;6.80;99.90;;;;;;6273836;28;20044;-83
2024/03/09 03:16:00;;;;;;;34.17;16.20;;;6.90;99.90;;;;;;6285560;28;20064;-83
2024/03/09 03:19:06;;;;;;;36.85;16.77;;;6.80;99.90;;;;;;6295879;28;20051;-83
2024/03/09 03:22:07;;;;;;;31.95;15.85;;;6.80;99.90;;;;;;6271391;28;20063;-83
2024/03/09 03:25:10;;;;;;;40.67;17.02;;;6.90;99.90;;;;;;6293920;28;20498;-82
2024/03/09 03:28:11;;;;;;;35.15;16.80;;;6.80;99.90;;;;;;6290476;28;20114;-83
2024/03/09 03:31:13;;;;;;;37.88;17.38;;;6.80;99.90;;;;;;6300880;28;20055;-83
2024/03/09 03:34:15;;;;;;;30.88;15.15;;;6.80;99.90;;;;;;6295977;28;20063;-83
2024/03/09 03:37:17;;;;;;;34.95;16.23;;;7.00;99.90;;;;;;6295606;28;20052;-83
2024/03/09 03:40:19;;;;;;;22.83;12.40;;;7.00;99.90;;;;;;6308174;28;20048;-83
2024/03/09 03:43:21;;;;;;;25.27;11.98;;;7.20;99.90;;;;;;6262961;28;20071;-84
2024/03/09 03:46:22;;;;;;;24.98;11.77;;;7.40;99.90;;;;;;6295312;28;20515;-84
2024/03/09 03:49:26;;;;;;;22.05;11.52;;;7.60;99.90;;;;;;6297057;28;20051;-84
2024/03/09 03:52:28;;;;;;;25.85;11.57;;;7.70;99.90;;;;;;6295258;28;20810;-84
2024/03/09 03:55:29;;;;;;;22.25;12.05;;;7.80;99.90;;;;;;6295997;28;20048;-84
2024/03/09 03:58:31;;;;;;;25.00;12.00;;;7.80;99.70;;;;;;6290555;28;20055;-83
2024/03/09 04:01:33;;;;;;;23.70;11.70;;;7.90;98.90;;;;;;6296422;28;20055;-83
2024/03/09 04:04:36;;;;;;;25.55;12.23;;;7.90;98.50;;;;;;6318460;28;20419;-83
2024/03/09 04:07:40;;;;;;;23.90;11.50;;;7.90;98.50;;;;;;6295305;28;20044;-82
2024/03/09 04:10:43;;;;;;;21.77;11.00;;;7.80;99.00;;;;;;6294941;28;20048;-82
2024/03/09 04:13:45;;;;;;;20.73;11.07;;;7.90;99.70;;;;;;6284134;28;20365;-83
2024/03/09 04:16:46;;;;;;;21.40;10.27;;;7.90;99.90;;;;;;6295597;28;20492;-83
2024/03/09 04:19:49;;;;;;;24.25;10.63;;;8.00;99.90;;;;;;6310527;28;20059;-83
2024/03/09 04:22:51;;;;;;;20.65;10.32;;;8.00;99.90;;;;;;6293574;28;20056;-83
2024/03/09 04:25:53;;;;;;;23.45;9.88;;;8.00;99.70;;;;;;6294617;28;20484;-83
2024/03/09 04:28:55;;;;;;;19.17;9.52;;;8.00;99.50;;;;;;6289118;28;20205;-83
2024/03/09 04:31:58;;;;;;;21.08;9.73;;;8.10;99.80;;;;;;6294083;28;20044;-83
2024/03/09 04:35:01;;;;;;;20.38;9.63;;;8.40;99.90;;;;;;6294424;28;20044;-83
2024/03/09 04:38:03;;;;;;;17.52;8.98;;;8.10;99.90;;;;;;6310083;28;20048;-84
2024/03/09 04:41:05;;;;;;;19.45;9.15;;;8.10;99.90;;;;;;6295172;28;20517;-84
2024/03/09 04:44:07;;;;;;;17.90;8.48;;;8.10;99.90;;;;;;6287490;28;20056;-82
2024/03/09 04:47:22;;;;;;;19.10;7.88;;;8.10;99.90;;;;;;6284800;28;20052;-83
2024/03/09 04:50:24;;;;;;;18.63;8.63;;;8.20;99.90;;;;;;6294710;28;20052;-82
2024/03/09 04:53:26;;;;;;;16.27;7.40;;;8.30;99.90;;;;;;6294088;28;20550;-83
2024/03/09 04:56:28;;;;;;;14.40;6.88;;;8.30;99.90;;;;;;6294078;28;20408;-83
2024/03/09 04:59:29;;;;;;;13.52;6.72;;;8.40;99.90;;;;;;6288024;28;20061;-83
2024/03/09 05:02:32;;;;;;;14.02;6.28;;;8.40;99.30;;;;;;6308302;28;20052;-83
2024/03/09 05:05:34;;;;;;;13.45;6.25;;;8.50;99.30;;;;;;6295296;28;20423;-83
2024/03/09 05:08:36;;;;;;;14.52;6.10;;;8.50;98.80;;;;;;6295520;28;20530;-83
2024/03/09 05:11:38;;;;;;;15.32;5.50;;;8.90;99.20;;;;;;6306534;28;20051;-83
2024/03/09 05:14:40;;;;;;;15.23;5.45;;;8.60;99.10;;;;;;6288835;28;20412;-83
2024/03/09 05:17:41;;;;;;;16.02;5.43;;;8.60;99.20;;;;;;6294282;28;20052;-83
2024/03/09 05:20:43;;;;;;;11.80;5.25;;;8.60;99.40;;;;;;6293998;28;20084;-83
2024/03/09 05:23:45;;;;;;;10.82;4.90;;;8.60;99.10;;;;;;6293420;28;20077;-83
2024/03/09 05:26:46;;;;;;;9.45;4.47;;;8.60;99.10;;;;;;6293131;28;20131;-83
2024/03/09 05:29:48;;;;;;;13.07;5.10;;;8.60;99.40;;;;;;6287939;28;20131;-83
2024/03/09 05:33:01;;;;;;;13.13;4.68;;;8.70;99.10;;;;;;6301442;28;20056;-84
2024/03/09 05:36:05;;;;;;;10.43;3.83;;;8.60;98.90;;;;;;6293613;28;20158;-84
2024/03/09 05:39:06;;;;;;;8.63;4.03;;;8.70;98.80;;;;;;6292959;28;20059;-83
2024/03/09 05:42:09;;;;;;;9.25;3.80;;;8.60;99.10;;;;;;6292801;28;20415;-83
2024/03/09 05:45:23;;;;;;;6.47;3.17;;;8.50;99.10;;;;;;6286672;28;20425;-83
2024/03/09 05:48:24;;;;;;;6.25;3.45;;;8.60;99.50;;;;;;6305728;28;20051;-83
2024/03/09 05:51:26;;;;;;;7.38;2.78;;;8.50;99.60;;;;;;6297512;28;20049;-83
2024/03/09 05:54:31;;;;;;;6.00;2.80;;;8.40;99.20;;;;;;6293098;28;20103;-83
2024/03/09 05:57:32;;;;;;;7.65;2.60;;;8.20;99.80;;;;;;6312134;28;20530;-83
2024/03/09 06:00:36;;;;;;;7.50;2.90;;;8.10;99.90;;;;;;6283322;28;20519;-83
2024/03/09 06:03:41;;;;;;;9.20;2.78;;;7.90;99.90;;;;;;6292647;28;20574;-83
2024/03/09 06:06:43;;;;;;;6.82;2.15;;;7.70;99.90;;;;;;6288684;28;20044;-83
2024/03/09 06:09:44;;;;;;;4.57;1.85;;;7.60;99.90;;;;;;6293474;28;20502;-83
2024/03/09 06:12:52;;;;;;;5.20;2.03;;;7.50;99.90;;;;;;6291973;28;20158;-82
2024/03/09 06:15:55;;;;;;;4.65;1.52;;;7.50;99.90;;;;;;6283542;28;20079;-82
2024/03/09 06:18:57;;;;;;;4.43;1.30;;;7.50;99.90;;;;;;6268151;28;20496;-82
2024/03/09 06:21:59;;;;;;;4.70;1.20;;;7.40;99.90;;;;;;6295933;28;20048;-83
2024/03/09 06:25:00;;;;;;;5.18;1.20;;;7.40;99.90;;;;;;6292556;28;20052;-83
2024/03/09 06:28:02;;;;;;;5.38;1.30;;;7.30;99.90;;;;;;6291716;28;20530;-83
2024/03/09 06:31:04;;;;;;;3.58;1.30;;;7.20;99.90;;;;;;6286729;28;20044;-83
2024/03/09 06:34:07;;;;;;;6.20;1.33;;;7.00;99.90;;;;;;6292151;28;20534;-83
2024/03/09 06:37:09;;;;;;;5.00;1.30;;;7.00;99.90;;;;;;6277988;28;20049;-83
2024/03/09 06:40:11;;;;;;;3.92;1.23;;;6.90;99.90;;;;;;6292351;28;20044;-83
2024/03/09 06:43:13;;;;;;;4.70;1.13;;;6.90;99.90;;;;;;6287936;28;20055;-83
2024/03/09 06:46:14;;;;;;;5.43;1.20;;;6.90;99.90;;;;;;6295272;28;20060;-84
2024/03/09 06:49:17;;;;;;;5.28;1.17;;;6.80;99.90;;;;;;6297154;28;20060;-83
2024/03/09 06:52:18;;;;;;;5.43;1.20;;;6.80;99.90;;;;;;6316361;28;20052;-83
2024/03/09 06:55:24;;;;;;;4.18;1.20;;;6.80;99.90;;;;;;6298693;28;20059;-82
2024/03/09 06:58:26;;;;;;;5.15;1.23;;;6.70;99.90;;;;;;6263394;28;20553;-82
2024/03/09 07:01:30;;;;;;;2.85;1.13;;;6.80;99.90;;;;;;6296707;28;20059;-82
2024/03/09 07:04:31;;;;;;;5.68;1.05;;;6.90;99.90;;;;;;6296280;28;20056;-83
2024/03/09 07:07:33;;;;;;;7.88;1.05;;;6.80;99.90;;;;;;6299991;28;20052;-83
2024/03/09 07:10:35;;;;;;;5.07;1.20;;;6.90;99.90;;;;;;6296140;28;20048;-82
2024/03/09 07:13:40;;;;;;;5.25;1.20;;;6.80;99.90;;;;;;6273304;28;20052;-83
2024/03/09 07:16:42;;;;;;;4.88;1.10;;;6.80;99.90;;;;;;6296278;28;20052;-83
2024/03/09 07:19:45;;;;;;;5.13;1.50;;;6.80;99.90;;;;;;6296724;28;20120;-83
2024/03/09 07:22:50;;;;;;;7.68;1.60;;;6.90;99.90;;;;;;6289744;28;20883;-83
2024/03/09 07:25:52;;;;;;;7.57;1.48;;;6.90;99.90;;;;;;6296227;28;20049;-83
2024/03/09 07:28:54;;;;;;;7.10;1.65;;;6.90;99.90;;;;;;6285663;28;20048;-83
2024/03/09 07:31:56;;;;;;;7.15;1.67;;;7.00;99.90;;;;;;6302911;28;20056;-83
2024/03/09 07:34:58;;;;;;;5.93;1.90;;;7.10;99.90;;;;;;6295993;28;20052;-83
2024/03/09 07:38:00;;;;;;;6.03;1.90;;;7.20;99.90;;;;;;6295817;28;20052;-84
2024/03/09 07:41:03;;;;;;;4.82;2.00;;;7.20;99.90;;;;;;6301784;28;20048;-83
2024/03/09 07:44:06;;;;;;;6.68;2.42;;;7.30;99.90;;;;;;6288874;28;20056;-83
2024/03/09 07:47:08;;;;;;;6.13;2.40;;;7.50;99.90;;;;;;6296106;28;20072;-85
2024/03/09 07:50:13;;;;;;;5.43;2.00;;;8.40;99.90;;;;;;6297994;28;20439;-85
2024/03/09 07:53:16;;;;;;;6.55;2.13;;;9.30;95.40;;;;;;6305585;28;20048;-83
2024/03/09 07:56:18;;;;;;;5.00;2.00;;;10.20;93.40;;;;;;6294328;28;20614;-82
2024/03/09 07:59:20;;;;;;;4.32;2.25;;;11.10;53.20;;;;;;6276999;28;20052;-85
2024/03/09 08:02:23;;;;;;;5.78;2.30;;;10.50;34.20;;;;;;6295461;28;20051;-84
2024/03/09 08:05:26;;;;;;;5.40;2.50;;;9.90;43.90;;;;;;6295668;28;20049;-84
2024/03/09 08:08:27;;;;;;;5.72;2.97;;;9.60;65.50;;;;;;6298108;28;20063;-85
2024/03/09 08:11:30;;;;;;;7.85;3.40;;;9.30;75.90;;;;;;6309754;28;20048;-83
2024/03/09 08:14:33;;;;;;;6.57;3.63;;;9.30;72.70;;;;;;6289766;28;20066;-83
2024/03/09 08:17:35;;;;;;;8.32;4.05;;;9.20;77.90;;;;;;6304865;28;20129;-82
2024/03/09 08:20:38;;;;;;;10.15;4.60;;;9.10;80.30;;;;;;6295230;28;20056;-83
2024/03/09 08:23:42;;;;;;;7.80;4.05;;;9.20;80.40;;;;;;6295077;28;20052;-81
2024/03/09 08:26:45;;;;;;;8.27;4.20;;;9.30;78.70;;;;;;6294265;28;20523;-80
2024/03/09 08:29:49;;;;;;;8.13;4.45;;;9.30;77.70;;;;;;6283910;28;20107;-83
2024/03/09 08:32:58;;;;;;;8.68;5.05;;;9.40;72.80;;;;;;6285393;28;20421;-82
2024/03/09 08:36:02;;;;;;;9.00;4.90;;;9.40;76.20;;;;;;6269505;28;20134;-83
2024/03/09 08:39:04;;;;;;;8.98;4.60;;;9.70;70.00;;;;;;6280529;28;20044;-86
2024/03/09 08:42:06;;;;;;;9.95;5.03;;;9.80;64.20;;;;;;6280844;28;20059;-84
2024/03/09 08:45:09;;;;;;;10.88;5.28;;;9.90;61.80;;;;;;6251784;28;20065;-82
2024/03/09 08:48:12;;;;;;;11.45;4.95;;;10.10;58.40;;;;;;6270058;28;20060;-83
2024/03/09 08:51:14;;;;;;;8.88;5.05;;;10.00;51.60;;;;;;6246361;28;20481;-83
2024/03/09 08:54:17;;;;;;;10.50;5.55;;;9.90;51.70;;;;;;6261252;28;20053;-83
2024/03/09 08:57:19;;;;;;;9.73;5.60;;;9.90;55.80;;;;;;6271387;28;20045;-86
2024/03/09 09:00:24;;;;;;;10.35;5.35;;;9.90;53.30;;;;;;6239138;28;20045;-86
2024/03/09 09:03:27;;;;;;;10.13;5.57;;;9.90;51.10;;;;;;6220323;28;20054;-86
2024/03/09 09:06:30;;;;;;;11.10;5.60;;;10.00;44.60;;;;;;6268880;28;20048;-87
2024/03/09 09:09:31;;;;;;;10.98;6.00;;;10.00;49.80;;;;;;6245764;28;20060;-86
2024/03/09 09:12:33;;;;;;;9.77;5.40;;;10.30;47.30;;;;;;6267774;28;20435;-83
2024/03/09 09:15:35;;;;;;;11.48;5.28;;;10.70;38.10;;;;;;6234208;28;20060;-84
2024/03/09 09:18:37;;;;;;;10.40;5.65;;;10.80;26.50;;;;;;6219276;28;20049;-84
2024/03/09 09:21:39;;;;;;;9.07;5.30;;;11.10;19.10;;;;;;6266539;28;20068;-81
2024/03/09 09:24:40;;;;;;;10.15;5.25;;;11.20;11.20;;;;;;6244933;28;20168;-84
2024/03/09 09:27:46;;;;;;;9.88;5.20;;;11.40;11.90;;;;;;6265100;28;20053;-85
2024/03/09 09:30:48;;;;;;;10.23;4.93;;;11.30;7.30;;;;;;6240228;28;20576;-82
2024/03/09 09:33:49;;;;;;;10.95;5.60;;;11.20;1.00;;;;;;6257990;28;20076;-82
2024/03/09 09:36:53;;;;;;;9.27;5.15;;;11.20;8.80;;;;;;6268738;28;20517;-83
2024/03/09 09:39:55;;;;;;;10.55;4.93;;;11.30;8.20;;;;;;6268708;28;20049;-83
2024/03/09 09:42:59;;;;;;;11.18;5.60;;;11.40;2.90;;;;;;6246485;28;20064;-82
2024/03/09 09:46:04;;;;;;;7.88;4.85;;;11.40;1.00;;;;;;6295512;28;20056;-82
2024/03/09 09:49:08;;;;;;;8.43;4.93;;;11.60;4.00;;;;;;6295268;28;20055;-81
2024/03/09 09:52:09;;;;;;;9.55;4.30;;;11.80;1.00;;;;;;6305101;28;20048;-85
2024/03/09 09:55:12;;;;;;;9.27;4.03;;;12.20;1.00;;;;;;6294120;28;20135;-83
2024/03/09 09:58:14;;;;;;;9.80;4.07;;;12.60;1.00;;;;;;6289152;28;20484;-82
2024/03/09 10:01:15;;;;;;;9.07;3.92;;;13.00;1.00;;;;;;6274505;28;20060;-85
2024/03/09 10:04:17;;;;;;;9.00;3.78;;;13.10;1.00;;;;;;6249649;28;20060;-84
2024/03/09 10:07:19;;;;;;;5.43;3.10;;;13.10;1.00;;;;;;6275019;28;20060;-83
2024/03/09 10:10:21;;;;;;;5.65;3.00;;;13.30;1.00;;;;;;6292433;28;20114;-83
2024/03/09 10:13:24;;;;;;;7.55;3.45;;;13.70;1.00;;;;;;6275112;28;20048;-83
2024/03/09 10:16:27;;;;;;;8.82;3.40;;;14.10;1.00;;;;;;6292916;28;20201;-84
2024/03/09 10:19:28;;;;;;;6.95;3.08;;;15.20;1.00;;;;;;6295719;28;20060;-84
2024/03/09 10:22:30;;;;;;;8.10;3.47;;;15.10;1.00;;;;;;6297768;28;20076;-85
2024/03/09 10:25:35;;;;;;;10.88;3.00;;;14.70;1.00;;;;;;6298172;28;20109;-84
2024/03/09 10:28:37;;;;;;;5.20;2.63;;;14.80;1.00;;;;;;6292387;28;20056;-85
2024/03/09 10:31:42;;;;;;;10.48;2.80;;;14.80;1.00;;;;;;6297506;28;20064;-86
2024/03/09 10:34:44;;;;;;;5.72;2.58;;;16.00;1.00;;;;;;6298465;28;20196;-86
2024/03/09 10:37:46;;;;;;;6.82;2.95;;;16.50;1.00;;;;;;6302892;28;20052;-86
2024/03/09 10:40:48;;;;;;;8.70;2.80;;;16.10;1.00;;;;;;6298832;28;20133;-82
2024/03/09 10:43:50;;;;;;;6.28;2.28;;;15.50;1.00;;;;;;6292787;28;20048;-83
2024/03/09 10:46:53;;;;;;;4.93;1.83;;;16.30;1.00;;;;;;6298401;28;20185;-81
2024/03/09 10:49:55;;;;;;;6.85;2.20;;;16.70;1.00;;;;;;6281811;28;20053;-80
2024/03/09 10:52:56;;;;;;;4.13;2.20;;;17.10;1.00;;;;;;6300883;28;20149;-83
2024/03/09 10:55:59;;;;;;;8.02;2.22;;;17.70;1.00;;;;;;6309113;28;20442;-87
2024/03/09 10:59:01;;;;;;;5.22;2.20;;;18.30;1.00;;;;;;6287565;28;20566;-84
2024/03/09 11:02:03;;;;;;;6.93;2.90;;;18.00;1.00;;;;;;6299865;28;20478;-82
2024/03/09 11:05:08;;;;;;;5.85;2.90;;;18.20;1.00;;;;;;6297774;28;20506;-83
2024/03/09 11:08:09;;;;;;;6.30;3.33;;;18.30;1.00;;;;;;6296733;28;20048;-83
2024/03/09 11:11:13;;;;;;;6.60;3.47;;;18.10;1.00;;;;;;6315329;28;20140;-83
2024/03/09 11:14:16;;;;;;;9.65;4.78;;;17.40;1.00;;;;;;6265276;28;20488;-84
2024/03/09 11:17:17;;;;;;;10.00;5.30;;;17.30;1.00;;;;;;6296464;28;20045;-83
2024/03/09 11:20:19;;;;;;;10.32;6.15;;;17.90;1.00;;;;;;6297576;28;20063;-83
2024/03/09 11:23:21;;;;;;;10.75;6.20;;;18.50;1.00;;;;;;6314186;28;20048;-82
2024/03/09 11:26:23;;;;;;;14.30;6.15;;;17.70;1.00;;;;;;6297241;28;20117;-83
2024/03/09 11:29:25;;;;;;;12.63;5.70;;;17.70;1.00;;;;;;6294571;28;20056;-81
2024/03/09 11:32:28;;;;;;;13.68;6.80;;;18.50;1.00;;;;;;6278673;28;20051;-81
2024/03/09 11:35:33;;;;;;;14.43;7.03;;;18.10;1.00;;;;;;6287132;28;20616;-81
2024/03/09 11:38:35;;;;;;;11.77;6.38;;;16.90;1.00;;;;;;6296329;28;20050;-82
2024/03/09 11:41:38;;;;;;;13.23;6.47;;;16.90;1.00;;;;;;6306294;28;20059;-82
2024/03/09 11:44:42;;;;;;;12.80;6.30;;;17.30;1.00;;;;;;6290622;28;20512;-82
2024/03/09 11:47:44;;;;;;;12.77;6.22;;;17.30;1.00;;;;;;6319329;28;20056;-83
2024/03/09 11:50:46;;;;;;;13.70;6.70;;;17.40;1.00;;;;;;6297845;28;20047;-82
2024/03/09 11:53:48;;;;;;;10.20;6.03;;;17.70;1.00;;;;;;6307659;28;20048;-83
2024/03/09 11:56:51;;;;;;;10.82;5.97;;;18.10;1.00;;;;;;6309517;28;20048;-82
2024/03/09 11:59:53;;;;;;;12.95;6.47;;;18.10;1.00;;;;;;6279150;28;20075;-86
2024/03/09 12:02:55;;;;;;;16.60;7.35;;;18.30;1.00;;;;;;6280710;28;20503;-90
2024/03/09 12:05:58;;;;;;;15.05;7.32;;;18.20;1.00;;;;;;6280917;28;20416;-85
2024/03/09 12:08:59;;;;;;;17.48;9.38;;;18.70;1.00;;;;;;6295715;28;20816;-85
2024/03/09 12:12:01;;;;;;;16.10;8.52;;;17.80;1.00;;;;;;6295239;28;20044;-84
2024/03/09 12:15:03;;;;;;;13.40;6.78;;;17.50;1.00;;;;;;6280171;28;20420;-84
2024/03/09 12:18:05;;;;;;;15.77;7.07;;;17.70;1.00;;;;;;6295757;28;20391;-84
2024/03/09 12:21:08;;;;;;;12.90;6.70;;;17.40;1.00;;;;;;6295213;28;20060;-84
2024/03/09 12:24:10;;;;;;;14.15;6.68;;;17.40;1.00;;;;;;6294886;28;20056;-84
2024/03/09 12:27:12;;;;;;;14.02;6.90;;;17.10;1.00;;;;;;6295327;28;20056;-83
2024/03/09 12:30:15;;;;;;;13.30;6.90;;;16.50;1.00;;;;;;6289227;28;20105;-83
2024/03/09 12:33:17;;;;;;;14.52;6.97;;;16.30;1.00;;;;;;6276841;28;20048;-83
2024/03/09 12:36:18;;;;;;;16.33;7.45;;;16.00;1.00;;;;;;6294958;28;20052;-83
2024/03/09 12:39:20;;;;;;;16.55;7.85;;;15.80;1.00;;;;;;6295233;28;20056;-83
2024/03/09 12:42:23;;;;;;;14.32;8.50;;;15.50;1.00;;;;;;6294551;28;20052;-84
2024/03/09 12:45:25;;;;;;;13.88;8.80;;;15.60;1.00;;;;;;6266285;28;20059;-83
2024/03/09 12:48:27;;;;;;;14.85;9.40;;;15.20;1.00;;;;;;6295259;28;20094;-82
2024/03/09 12:51:29;;;;;;;16.20;9.05;;;15.00;1.00;;;;;;6277064;28;20495;-83
2024/03/09 12:54:31;;;;;;;14.90;8.82;;;15.00;1.00;;;;;;6295577;28;20063;-85
2024/03/09 12:57:33;;;;;;;18.70;9.93;;;15.50;1.00;;;;;;6296014;28;20048;-89
2024/03/09 13:00:36;;;;;;;20.05;10.05;;;15.60;1.00;;;;;;6281667;28;20060;-90
2024/03/09 13:03:38;;;;;;;21.83;10.18;;;15.10;1.00;;;;;;6298018;28;20480;-86
2024/03/09 13:06:42;;;;;;;21.90;10.52;;;15.00;1.00;;;;;;6309098;28;20050;-89
2024/03/09 13:09:44;;;;;;;28.58;11.88;;;14.50;1.00;;;;;;6302560;28;20059;-85
2024/03/09 13:12:47;;;;;;;21.25;11.52;;;14.40;1.00;;;;;;6295745;28;20048;-86
2024/03/09 13:15:52;;;;;;;17.40;10.45;;;14.40;1.00;;;;;;6290178;28;20441;-85
2024/03/09 13:18:57;;;;;;;19.55;10.88;;;14.60;1.00;;;;;;6256253;28;20053;-83
2024/03/09 13:22:05;;;;;;;20.27;10.77;;;15.10;1.00;;;;;;6304704;28;20120;-83
2024/03/09 13:25:10;;;;;;;21.30;10.95;;;15.30;1.00;;;;;;6275870;28;20132;-84
2024/03/09 13:28:12;;;;;;;19.88;11.80;;;14.80;1.00;;;;;;6276654;28;20439;-88
2024/03/09 13:31:16;;;;;;;18.95;11.10;;;14.70;1.00;;;;;;6275869;28;20057;-83
2024/03/09 13:34:17;;;;;;;18.00;11.05;;;14.80;1.00;;;;;;6293799;28;20563;-83
2024/03/09 13:37:19;;;;;;;21.08;11.35;;;14.90;1.00;;;;;;6293825;28;20052;-82
2024/03/09 13:40:27;;;;;;;20.25;11.55;;;14.70;1.00;;;;;;6275902;28;20506;-81
2024/03/09 13:43:28;;;;;;;20.98;11.85;;;14.60;1.00;;;;;;6274075;28;20438;-82
2024/03/09 13:46:30;;;;;;;20.48;11.10;;;14.50;1.00;;;;;;6293110;28;20053;-83
2024/03/09 13:49:31;;;;;;;24.58;11.45;;;14.40;1.00;;;;;;6257765;28;20500;-82
2024/03/09 13:52:33;;;;;;;23.38;11.27;;;14.40;1.00;;;;;;6293554;28;20423;-80
2024/03/09 13:55:35;;;;;;;22.85;12.00;;;14.10;1.00;;;;;;6294196;28;20060;-82
2024/03/09 13:58:36;;;;;;;23.90;11.80;;;14.10;1.00;;;;;;6295920;28;20104;-87
2024/03/09 14:01:38;;;;;;;25.50;12.40;;;14.10;1.00;;;;;;6277167;28;20439;-90
2024/03/09 14:04:41;;;;;;;20.52;11.50;;;13.90;1.00;;;;;;6295606;28;20132;-85
2024/03/09 14:07:43;;;;;;;26.70;11.93;;;14.10;1.00;;;;;;6294579;28;20063;-84
2024/03/09 14:10:45;;;;;;;22.63;11.65;;;14.10;1.00;;;;;;6293988;28;20210;-82
2024/03/09 14:13:47;;;;;;;22.88;12.50;;;13.70;1.00;;;;;;6293205;28;20048;-82
2024/03/09 14:16:49;;;;;;;20.45;11.95;;;13.60;1.00;;;;;;6293122;28;20095;-83
2024/03/09 14:19:51;;;;;;;24.45;12.70;;;13.60;1.00;;;;;;6292438;28;20056;-83
2024/03/09 14:22:53;;;;;;;22.45;12.48;;;13.80;1.00;;;;;;6275230;28;20048;-82
2024/03/09 14:25:55;;;;;;;23.05;13.43;;;13.90;1.00;;;;;;6292087;28;20049;-82
2024/03/09 14:28:58;;;;;;;24.40;13.52;;;13.80;1.00;;;;;;6269307;28;20052;-82
2024/03/09 14:32:06;;;;;;;26.20;12.77;;;13.70;1.00;;;;;;6274738;28;20061;-83
2024/03/09 14:35:15;;;;;;;24.35;12.68;;;13.60;1.00;;;;;;6268020;28;20079;-82
2024/03/09 14:38:22;;;;;;;25.55;12.65;;;13.70;1.00;;;;;;6268306;28;20145;-81
2024/03/09 14:41:25;;;;;;;27.48;13.82;;;13.60;1.00;;;;;;6291165;28;20227;-84
2024/03/09 14:44:29;;;;;;;24.40;12.50;;;13.50;1.00;;;;;;6286291;28;20096;-83
2024/03/09 14:47:31;;;;;;;21.05;12.13;;;14.10;1.00;;;;;;6274396;28;20060;-83
2024/03/09 14:50:32;;;;;;;19.58;11.70;;;14.80;1.00;;;;;;6293463;28;20049;-83
2024/03/09 14:53:34;;;;;;;22.33;12.43;;;15.30;1.00;;;;;;6294054;28;20072;-85
2024/03/09 14:56:36;;;;;;;22.02;9.60;;;15.70;1.00;;;;;;6275478;28;20052;-84
2024/03/09 14:59:37;;;;;;;20.17;9.52;;;15.90;1.00;;;;;;6294102;28;20060;-85
2024/03/09 15:02:39;;;;;;;26.30;10.63;;;15.70;1.00;;;;;;6292100;28;20048;-86
2024/03/09 15:05:41;;;;;;;20.02;9.48;;;15.20;1.00;;;;;;6296342;28;20446;-84
2024/03/09 15:08:43;;;;;;;23.67;9.23;;;14.80;1.00;;;;;;6296989;28;20052;-85
2024/03/09 15:11:45;;;;;;;22.80;10.70;;;14.40;1.00;;;;;;6296975;28;20052;-83
2024/03/09 15:14:47;;;;;;;22.73;12.50;;;14.00;1.00;;;;;;6296505;28;20523;-83
2024/03/09 15:17:49;;;;;;;27.63;13.00;;;13.70;1.00;;;;;;6278625;28;20101;-83
2024/03/09 15:20:51;;;;;;;25.10;12.70;;;13.40;1.00;;;;;;6296429;28;20153;-83
2024/03/09 15:23:53;;;;;;;25.10;12.75;;;13.10;1.00;;;;;;6296001;28;20507;-82
2024/03/09 15:26:55;;;;;;;22.88;12.70;;;12.80;1.00;;;;;;6296081;28;20060;-82
2024/03/09 15:29:57;;;;;;;22.02;11.82;;;12.70;1.00;;;;;;6291119;28;20052;-82
2024/03/09 15:32:59;;;;;;;23.65;12.25;;;12.50;1.00;;;;;;6296088;28;20096;-82
2024/03/09 15:36:02;;;;;;;23.13;12.25;;;12.40;1.00;;;;;;6296139;28;20068;-82
2024/03/09 15:39:07;;;;;;;29.48;13.30;;;12.40;1.00;;;;;;6280338;28;20059;-86
2024/03/09 15:42:09;;;;;;;27.52;13.50;;;12.20;1.00;;;;;;6297011;28;20174;-83
2024/03/09 15:45:11;;;;;;;28.67;13.30;;;12.20;1.00;;;;;;6268344;28;20064;-82
2024/03/09 15:48:15;;;;;;;29.48;14.32;;;12.00;1.00;;;;;;6307733;28;20079;-83
2024/03/09 15:51:18;;;;;;;33.95;13.85;;;12.10;1.90;;;;;;6308334;28;20059;-82